Childress, Texas
Current Conditions -  °F | °C
As of 10:53 AM on Thursday 27 Nov 2014 (Local Time) from KCDS Reporting Station
Clear Clear  
Wind Chill: 39°   Ceiling: Unl
Heat Index: 44°   Visibility: 10mi
Dew Point: 22°   Wind: 10mph
Humidity: 42%   Direction: 190°S
Pressure: 30.52"   Gusts: NA
Location:  34.43°N, 100.21°W
Report Text: KCDS 271653Z AUTO 19009KT 10SM CLR 07/M06 A3052 RMK AO2 SLP337 T00671056
Loading
Personal Weather Stations






























Interactive Weather Map New forecast layout! Learn more

10-Day Weather Forecast

Advertisements
Track Severe Weather on mobile